createdAt,value
2023-03-02T00:01:35.130Z,99110.81
2023-03-02T00:04:05.117Z,99110.66
2023-03-02T00:06:34.992Z,99116.56
2023-03-02T00:09:04.281Z,99122.84
2023-03-02T00:11:33.070Z,99129.94
2023-03-02T00:14:00.112Z,99123.63
2023-03-02T00:16:27.243Z,99126.34
2023-03-02T00:18:54.217Z,99134.19
2023-03-02T00:21:21.415Z,99139.31
2023-03-02T00:23:48.372Z,99147.78
2023-03-02T00:26:15.368Z,99143.47
2023-03-02T00:28:42.515Z,99151.97
2023-03-02T00:31:09.784Z,99162.25
2023-03-02T00:33:36.764Z,99170.28
2023-03-02T00:36:04.211Z,99178.69
2023-03-02T00:38:31.332Z,99182.25
2023-03-02T00:40:59.482Z,99192.81
2023-03-02T00:43:28.174Z,99180.31
2023-03-02T00:45:55.851Z,99181.94
2023-03-02T00:48:23.240Z,99186.88
2023-03-02T00:50:50.276Z,99197.47
2023-03-02T00:53:18.138Z,99202.50
2023-03-02T00:55:54.819Z,99202.41
2023-03-02T00:58:22.508Z,99207.63
2023-03-02T01:00:49.638Z,99211.63
2023-03-02T01:03:16.732Z,99217.06
2023-03-02T01:05:44.113Z,99215.84
2023-03-02T01:08:11.683Z,99226.34
2023-03-02T01:10:39.751Z,99230.94
2023-03-02T01:13:08.435Z,99235.06
2023-03-02T01:15:35.515Z,99232.34
2023-03-02T01:18:02.644Z,99237.69
2023-03-02T01:20:29.638Z,99233.41
2023-03-02T01:22:56.715Z,99243.84
2023-03-02T01:25:24.193Z,99236.41
2023-03-02T01:27:51.356Z,99241.47
2023-03-02T01:30:18.841Z,99244.94
2023-03-02T01:32:45.895Z,99253.56
2023-03-02T01:35:13.636Z,99257.00
2023-03-02T01:37:40.750Z,99265.75
2023-03-02T01:40:09.552Z,99262.19
2023-03-02T01:42:46.473Z,99265.41
2023-03-02T01:46:02.110Z,99264.78
2023-03-02T01:48:37.164Z,99263.72
2023-03-02T01:51:07.396Z,99267.16
2023-03-02T01:53:36.689Z,99278.75
2023-03-02T01:56:05.744Z,99286.69
2023-03-02T01:58:37.030Z,99280.50
2023-03-02T02:01:04.934Z,99285.91
2023-03-02T02:03:32.423Z,99277.97
2023-03-02T02:06:24.428Z,99283.94
2023-03-02T02:08:54.322Z,99275.88
2023-03-02T02:11:21.583Z,99271.38
2023-03-02T02:13:48.896Z,99283.41
2023-03-02T02:16:16.474Z,99282.47
2023-03-02T02:18:44.510Z,99287.41
2023-03-02T02:21:12.079Z,99304.03
2023-03-02T02:24:01.785Z,99304.78
2023-03-02T02:26:37.446Z,99310.97
2023-03-02T02:29:14.830Z,99323.44
2023-03-02T02:31:48.752Z,99324.13
2023-03-02T02:34:31.852Z,99325.16
2023-03-02T02:37:12.663Z,99324.84
2023-03-02T02:39:45.245Z,99329.31
2023-03-02T02:42:28.821Z,99330.34
2023-03-02T02:45:00.042Z,99336.50
2023-03-02T02:47:28.104Z,99327.53
2023-03-02T02:49:56.682Z,99337.44
2023-03-02T02:52:27.250Z,99326.00
2023-03-02T02:54:56.812Z,99338.81
2023-03-02T02:57:28.192Z,99347.53
2023-03-02T03:00:00.125Z,99342.84
2023-03-02T03:02:30.958Z,99349.75
2023-03-02T03:05:02.691Z,99347.03
2023-03-02T03:07:33.240Z,99343.22
2023-03-02T03:10:35.078Z,99365.09
2023-03-02T03:13:02.810Z,99366.00
2023-03-02T03:15:29.792Z,99365.03
2023-03-02T03:17:58.762Z,99366.75
2023-03-02T03:20:26.967Z,99376.44
2023-03-02T03:22:54.349Z,99378.09
2023-03-02T03:25:26.878Z,99372.94
2023-03-02T03:27:53.873Z,99377.13
2023-03-02T03:30:22.265Z,99378.78
2023-03-02T03:32:49.380Z,99381.50
2023-03-02T03:35:16.534Z,99383.16
2023-03-02T03:37:43.662Z,99383.97
2023-03-02T03:40:11.792Z,99389.78
2023-03-02T03:42:39.770Z,99396.56
2023-03-02T03:45:08.929Z,99391.38
2023-03-02T03:47:37.007Z,99402.75
2023-03-02T03:50:04.460Z,99415.00
2023-03-02T03:52:31.642Z,99421.97
2023-03-02T03:55:00.907Z,99422.75
2023-03-02T03:57:29.205Z,99423.63
2023-03-02T03:59:56.355Z,99425.28
2023-03-02T04:02:23.390Z,99437.53
2023-03-02T04:04:50.702Z,99433.19
2023-03-02T04:07:18.698Z,99438.44
2023-03-02T04:09:45.643Z,99450.47
2023-03-02T04:12:12.775Z,99449.63
2023-03-02T04:14:39.857Z,99440.91
2023-03-02T04:17:07.163Z,99459.78
2023-03-02T04:19:35.784Z,99449.41
2023-03-02T04:22:04.342Z,99460.72
2023-03-02T04:24:31.985Z,99457.91
2023-03-02T04:27:00.107Z,99467.56
2023-03-02T04:29:27.168Z,99461.97
2023-03-02T04:31:54.316Z,99470.56
2023-03-02T04:34:21.422Z,99476.66
2023-03-02T04:36:48.522Z,99477.41
2023-03-02T04:39:17.975Z,99488.75
2023-03-02T04:41:46.146Z,99487.84
2023-03-02T04:44:14.960Z,99500.94
2023-03-02T04:46:44.667Z,99496.34
2023-03-02T04:49:12.894Z,99514.94
2023-03-02T04:51:43.750Z,99512.22
2023-03-02T04:54:28.771Z,99512.03
2023-03-02T04:56:56.103Z,99513.84
2023-03-02T04:59:27.730Z,99513.75
2023-03-02T05:01:58.601Z,99525.13
2023-03-02T05:04:26.755Z,99532.09
2023-03-02T05:06:53.890Z,99529.44
2023-03-02T05:09:27.130Z,99539.63
2023-03-02T05:11:59.708Z,99526.66
2023-03-02T05:14:27.228Z,99527.28
2023-03-02T05:16:54.642Z,99529.81
2023-03-02T05:19:22.128Z,99532.28
2023-03-02T05:21:49.431Z,99550.56
2023-03-02T05:24:16.976Z,99553.09
2023-03-02T05:26:43.999Z,99552.09
2023-03-02T05:29:11.041Z,99556.53
2023-03-02T05:31:42.503Z,99556.53
2023-03-02T05:34:12.738Z,99563.28
2023-03-02T05:36:40.133Z,99561.41
2023-03-02T05:39:09.017Z,99562.81
2023-03-02T05:41:37.271Z,99574.00
2023-03-02T05:44:09.662Z,99576.41
2023-03-02T05:46:37.127Z,99584.88
2023-03-02T05:49:04.620Z,99590.25
2023-03-02T05:51:31.609Z,99606.84
2023-03-02T05:53:58.560Z,99610.25
2023-03-02T05:56:25.906Z,99628.91
2023-03-02T05:58:52.970Z,99633.06
2023-03-02T06:01:20.062Z,99637.69
2023-03-02T06:03:47.121Z,99645.16
2023-03-02T06:06:14.513Z,99649.66
2023-03-02T06:08:43.326Z,99644.25
2023-03-02T06:11:11.918Z,99654.97
2023-03-02T06:13:42.955Z,99664.41
2023-03-02T06:16:10.472Z,99673.06
2023-03-02T06:18:40.957Z,99672.94
2023-03-02T06:21:09.047Z,99684.31
2023-03-02T06:23:36.109Z,99682.41
2023-03-02T06:26:10.066Z,99688.63
2023-03-02T06:28:49.763Z,99700.91
2023-03-02T06:31:18.991Z,99716.81
2023-03-02T06:33:46.073Z,99718.78
2023-03-02T06:36:13.319Z,99735.84
2023-03-02T06:38:40.538Z,99742.13
2023-03-02T06:41:07.694Z,99733.44
2023-03-02T06:43:34.705Z,99735.84
2023-03-02T06:46:02.121Z,99739.31
2023-03-02T06:48:29.308Z,99744.91
2023-03-02T06:50:56.810Z,99754.72
2023-03-02T06:53:23.800Z,99752.00
2023-03-02T06:55:51.836Z,99749.59
2023-03-02T06:58:19.000Z,99765.38
2023-03-02T07:00:46.425Z,99760.44
2023-03-02T07:03:13.572Z,99763.22
2023-03-02T07:05:40.668Z,99767.03
2023-03-02T07:08:08.241Z,99780.41
2023-03-02T07:10:35.342Z,99778.81
2023-03-02T07:13:02.284Z,99791.44
2023-03-02T07:15:29.266Z,99784.84
2023-03-02T07:17:56.291Z,99789.28
2023-03-02T07:20:23.421Z,99789.59
2023-03-02T07:22:50.420Z,99787.28
2023-03-02T07:25:17.525Z,99792.78
2023-03-02T07:27:44.588Z,99783.16
2023-03-02T07:30:12.567Z,99778.31
2023-03-02T07:32:39.578Z,99781.09
2023-03-02T07:35:07.281Z,99773.47
2023-03-02T07:37:34.370Z,99780.75
2023-03-02T07:40:02.025Z,99789.75
2023-03-02T07:42:29.084Z,99786.59
2023-03-02T07:44:56.281Z,99786.00
2023-03-02T07:47:23.584Z,99789.69
2023-03-02T07:49:51.007Z,99797.22
2023-03-02T07:52:18.201Z,99793.91
2023-03-02T07:54:45.217Z,99809.22
2023-03-02T07:57:16.282Z,99792.81
2023-03-02T07:59:44.151Z,99791.44
2023-03-02T08:02:15.683Z,99803.25
2023-03-02T08:04:43.321Z,99796.31
2023-03-02T08:07:10.375Z,99784.59
2023-03-02T08:09:40.149Z,99786.78
2023-03-02T08:12:07.233Z,99770.22
2023-03-02T08:14:34.291Z,99776.06
2023-03-02T08:17:02.412Z,99756.94
2023-03-02T08:19:30.421Z,99761.75
2023-03-02T08:21:57.655Z,99761.13
2023-03-02T08:27:06.862Z,99748.63
2023-03-02T08:29:34.423Z,99739.44
2023-03-02T08:32:01.868Z,99742.50
2023-03-02T08:34:29.018Z,99752.66
2023-03-02T08:36:56.038Z,99731.75
2023-03-02T08:39:23.722Z,99711.84
2023-03-02T08:41:52.117Z,99694.59
2023-03-02T08:44:22.129Z,99674.63
2023-03-02T08:46:50.664Z,99664.53
2023-03-02T08:49:19.284Z,99668.41
2023-03-02T08:51:47.251Z,99650.00
2023-03-02T08:54:14.289Z,99646.03
2023-03-02T08:56:41.965Z,99634.88
2023-03-02T08:59:13.238Z,99627.56
2023-03-02T09:02:28.535Z,99603.31
2023-03-02T09:05:18.977Z,99585.94
2023-03-02T09:07:46.124Z,99602.06
2023-03-02T09:10:13.187Z,99600.91
2023-03-02T09:12:40.201Z,99590.59
2023-03-02T09:15:07.613Z,99574.16
2023-03-02T09:17:34.642Z,99552.44
2023-03-02T09:20:01.758Z,99537.63
2023-03-02T09:22:28.932Z,99522.16
2023-03-02T09:24:55.972Z,99505.00
2023-03-02T09:27:23.108Z,99498.97
2023-03-02T09:29:50.173Z,99509.84
2023-03-02T09:32:17.420Z,99516.41
2023-03-02T09:34:44.517Z,99510.25
2023-03-02T09:37:11.675Z,99511.66
2023-03-02T09:39:39.588Z,99474.06
2023-03-02T09:43:00.137Z,99482.38
2023-03-02T09:45:55.963Z,99441.06
2023-03-02T09:48:40.990Z,99443.75
2023-03-02T09:51:33.840Z,99447.41
2023-03-02T09:54:12.808Z,99438.19
2023-03-02T09:56:54.600Z,99416.50
2023-03-02T09:59:27.600Z,99416.53
2023-03-02T10:02:24.618Z,99392.22
2023-03-02T10:04:55.844Z,99376.75
2023-03-02T10:07:40.924Z,99392.78
2023-03-02T10:11:00.418Z,99343.78
2023-03-02T10:13:45.042Z,99332.50
2023-03-02T10:16:38.084Z,99305.34
2023-03-02T10:19:25.282Z,99274.66
2023-03-02T10:22:03.017Z,99283.56
2023-03-02T10:24:43.708Z,99323.25
2023-03-02T10:27:44.114Z,99291.78
2023-03-02T10:30:33.456Z,99245.41
2023-03-02T10:33:23.069Z,99213.91
2023-03-02T10:35:53.502Z,99192.00
2023-03-02T10:38:24.168Z,99189.47
2023-03-02T10:41:01.078Z,99179.88
2023-03-02T10:43:45.833Z,99190.44
2023-03-02T10:46:14.409Z,99145.75
2023-03-02T10:48:59.708Z,99154.53
2023-03-02T10:51:34.390Z,99156.31
2023-03-02T10:54:12.442Z,99151.94
2023-03-02T10:56:44.457Z,99101.06
2023-03-02T10:59:43.724Z,99097.53
2023-03-02T11:02:27.583Z,99096.56
2023-03-02T11:05:15.980Z,99083.25
2023-03-02T11:08:03.929Z,99042.91
2023-03-02T11:11:03.316Z,99007.69
2023-03-02T11:13:38.646Z,99039.91
2023-03-02T11:16:32.126Z,98987.16
2023-03-02T11:19:05.858Z,98937.28
2023-03-02T11:21:52.047Z,99022.88
2023-03-02T11:24:24.238Z,99023.28
2023-03-02T11:27:25.200Z,98906.56
2023-03-02T11:30:04.005Z,98928.22
2023-03-02T11:32:45.378Z,98863.38
2023-03-02T11:35:32.804Z,98879.88
2023-03-02T11:38:48.428Z,98830.41
2023-03-02T11:41:30.093Z,98840.53
2023-03-02T11:44:02.427Z,98801.91
2023-03-02T11:46:31.145Z,98754.34
2023-03-02T11:49:04.996Z,98795.97
2023-03-02T11:51:44.485Z,98718.81
2023-03-02T11:54:41.285Z,98741.16
2023-03-02T11:57:28.025Z,98735.47
2023-03-02T11:59:56.958Z,98614.78
2023-03-02T12:02:25.202Z,98660.91
2023-03-02T12:05:20.642Z,98696.91
2023-03-02T12:08:21.370Z,98553.63
2023-03-02T12:11:19.475Z,98656.16
2023-03-02T12:14:01.877Z,98650.03
2023-03-02T12:16:41.973Z,98532.09
2023-03-02T12:19:13.592Z,98555.56
2023-03-02T12:21:57.387Z,98658.22
2023-03-02T12:24:32.485Z,98572.22
2023-03-02T12:27:20.867Z,98433.25
2023-03-02T12:30:26.342Z,98373.84
2023-03-02T12:33:13.397Z,98441.66
2023-03-02T12:35:40.531Z,98513.06
2023-03-02T12:38:32.218Z,98572.09
2023-03-02T12:41:35.756Z,98469.31
2023-03-02T12:44:22.083Z,98308.72
2023-03-02T12:46:50.629Z,98300.09
2023-03-02T12:49:30.814Z,98366.81
2023-03-02T12:52:01.449Z,98389.78
2023-03-02T12:54:32.248Z,98346.56
2023-03-02T12:57:20.269Z,98123.41
2023-03-02T12:59:58.174Z,98203.28
2023-03-02T13:02:34.837Z,98228.69
2023-03-02T13:05:08.488Z,98283.56
2023-03-02T13:07:44.653Z,98335.00
2023-03-02T13:10:39.307Z,98273.56
2023-03-02T13:13:34.358Z,98307.31
2023-03-02T13:16:20.229Z,98061.81
2023-03-02T13:18:49.927Z,98131.22
2023-03-02T13:21:19.716Z,98022.03
2023-03-02T13:23:50.551Z,98144.22
2023-03-02T13:26:36.049Z,98132.00
2023-03-02T13:29:20.630Z,98077.47
2023-03-02T13:31:48.005Z,97928.63
2023-03-02T13:34:28.109Z,98094.97
2023-03-02T13:36:55.725Z,98042.00
2023-03-02T13:39:29.112Z,98089.97
2023-03-02T13:42:04.013Z,98088.72
2023-03-02T13:44:34.051Z,97953.41
2023-03-02T13:47:02.533Z,98036.59
2023-03-02T13:49:33.484Z,97957.44
2023-03-02T13:52:08.554Z,98028.31
2023-03-02T13:54:37.189Z,98063.06
2023-03-02T13:57:05.788Z,97987.59
2023-03-02T13:59:36.799Z,97954.41
2023-03-02T14:02:29.866Z,97905.09
2023-03-02T14:04:57.996Z,97934.63
2023-03-02T14:07:25.068Z,97916.31
2023-03-02T14:09:52.095Z,97897.00
2023-03-02T14:12:31.043Z,97880.66
2023-03-02T14:15:00.841Z,97830.44
2023-03-02T14:17:28.065Z,97822.41
2023-03-02T14:19:55.616Z,97872.75
2023-03-02T14:22:25.933Z,97864.84
2023-03-02T14:24:53.683Z,97767.47
2023-03-02T14:27:21.028Z,97813.16
2023-03-02T14:29:48.093Z,97906.28
2023-03-02T14:32:16.159Z,97799.47
2023-03-02T14:34:43.330Z,97812.13
2023-03-02T14:37:18.100Z,97842.38
2023-03-02T14:42:30.551Z,97713.00
2023-03-02T14:44:59.210Z,97712.91
2023-03-02T14:47:26.868Z,97653.16
2023-03-02T14:49:54.723Z,97594.03
2023-03-02T14:52:40.032Z,97701.50
2023-03-02T14:55:19.452Z,97683.28
2023-03-02T14:57:51.284Z,97548.84
2023-03-02T15:00:18.910Z,97680.47
2023-03-02T15:02:45.992Z,97674.03
2023-03-02T15:05:13.067Z,97729.53
2023-03-02T15:07:41.036Z,97503.81
2023-03-02T15:10:14.664Z,97553.16
2023-03-02T15:12:41.662Z,97663.50
2023-03-02T15:15:10.085Z,97694.56
2023-03-02T15:17:37.708Z,97472.06
2023-03-02T15:20:06.306Z,97575.88
2023-03-02T15:22:34.407Z,97589.38
2023-03-02T15:25:01.512Z,97550.22
2023-03-02T15:27:28.520Z,97513.34
2023-03-02T15:29:56.895Z,97409.22
2023-03-02T15:32:24.404Z,97383.72
2023-03-02T15:34:51.502Z,97514.34
2023-03-02T15:37:18.657Z,97557.03
2023-03-02T15:39:45.997Z,97513.63
2023-03-02T15:42:14.047Z,97498.41
2023-03-02T15:44:41.212Z,97528.63
2023-03-02T15:47:08.234Z,97589.50
2023-03-02T15:49:35.270Z,97563.56
2023-03-02T15:52:02.404Z,97431.91
2023-03-02T15:54:29.933Z,97418.94
2023-03-02T15:56:57.530Z,97483.66
2023-03-02T15:59:28.311Z,97503.78
2023-03-02T16:01:59.825Z,97507.44
2023-03-02T16:04:28.527Z,97504.59
2023-03-02T16:06:56.481Z,97529.47
2023-03-02T16:09:25.672Z,97573.41
2023-03-02T16:11:52.971Z,97547.81
2023-03-02T16:14:20.058Z,97475.56
2023-03-02T16:16:47.950Z,97531.16
2023-03-02T16:19:19.211Z,97517.69
2023-03-02T16:21:47.716Z,97513.53
2023-03-02T16:24:17.021Z,97549.91
2023-03-02T16:26:44.930Z,97485.75
2023-03-02T16:29:13.726Z,97500.06
2023-03-02T16:31:41.566Z,97477.09
2023-03-02T16:34:10.192Z,97500.88
2023-03-02T16:36:40.006Z,97478.28
2023-03-02T16:39:08.888Z,97484.25
2023-03-02T16:41:36.928Z,97479.72
2023-03-02T16:44:05.332Z,97493.56
2023-03-02T16:46:39.361Z,97496.97
2023-03-02T16:49:07.565Z,97523.41
2023-03-02T16:51:35.255Z,97521.41
2023-03-02T16:54:02.930Z,97556.78
2023-03-02T16:56:30.430Z,97572.28
2023-03-02T16:59:00.122Z,97598.81
2023-03-02T17:01:28.467Z,97625.56
2023-03-02T17:03:56.493Z,97618.09
2023-03-02T17:06:24.626Z,97598.41
2023-03-02T17:08:51.984Z,97615.66
2023-03-02T17:11:21.303Z,97638.75
2023-03-02T17:13:48.493Z,97624.53
2023-03-02T17:16:16.868Z,97636.59
2023-03-02T17:18:47.114Z,97677.31
2023-03-02T17:21:16.953Z,97680.50
2023-03-02T17:23:44.762Z,97716.84
2023-03-02T17:26:11.936Z,97753.00
2023-03-02T17:28:39.385Z,97794.28
2023-03-02T17:31:06.935Z,97811.09
2023-03-02T17:33:34.580Z,97812.41
2023-03-02T17:36:12.090Z,97824.25
2023-03-02T17:38:40.454Z,97849.00
2023-03-02T17:41:11.511Z,97849.41
2023-03-02T17:43:41.661Z,97898.53
2023-03-02T17:46:30.369Z,97912.59
2023-03-02T17:49:00.426Z,97908.28
2023-03-02T17:51:29.338Z,97913.75
2023-03-02T17:53:57.229Z,97942.72
2023-03-02T17:56:27.468Z,97949.22
2023-03-02T17:58:57.552Z,97992.19
2023-03-02T18:01:26.904Z,97990.91
2023-03-02T18:03:54.075Z,97997.16
2023-03-02T18:06:22.244Z,98010.47
2023-03-02T18:08:51.721Z,98039.28
2023-03-02T18:11:22.122Z,98041.22
2023-03-02T18:13:49.753Z,98058.09
2023-03-02T18:16:16.781Z,98073.00
2023-03-02T18:18:43.958Z,98107.28
2023-03-02T18:21:11.102Z,98118.78
2023-03-02T18:23:39.900Z,98110.31
2023-03-02T18:26:07.199Z,98141.06
2023-03-02T18:28:34.577Z,98164.81
2023-03-02T18:31:01.871Z,98189.44
2023-03-02T18:33:29.125Z,98215.75
2023-03-02T18:35:57.410Z,98236.88
2023-03-02T18:38:31.096Z,98259.66
2023-03-02T18:41:00.960Z,98285.06
2023-03-02T18:43:30.098Z,98285.13
2023-03-02T18:45:57.860Z,98293.13
2023-03-02T18:48:25.540Z,98308.88
2023-03-02T18:50:52.658Z,98319.41
2023-03-02T18:53:19.864Z,98350.03
2023-03-02T18:55:47.076Z,98342.25
2023-03-02T18:58:22.714Z,98357.16
2023-03-02T19:00:50.505Z,98365.03
2023-03-02T19:03:18.069Z,98352.78
2023-03-02T19:05:45.844Z,98358.03
2023-03-02T19:08:12.975Z,98353.72
2023-03-02T19:10:42.459Z,98366.00
2023-03-02T19:13:11.699Z,98393.13
2023-03-02T19:15:42.823Z,98387.91
2023-03-02T19:18:16.223Z,98432.50
2023-03-02T19:20:48.296Z,98434.25
2023-03-02T19:23:15.871Z,98424.69
2023-03-02T19:25:43.885Z,98447.41
2023-03-02T19:28:11.790Z,98434.31
2023-03-02T19:30:40.302Z,98446.53
2023-03-02T19:33:09.446Z,98442.16
2023-03-02T19:35:40.405Z,98418.63
2023-03-02T19:38:08.885Z,98433.47
2023-03-02T19:40:37.310Z,98406.41
2023-03-02T19:43:05.794Z,98411.66
2023-03-02T19:45:35.029Z,98399.41
2023-03-02T19:48:05.754Z,98385.44
2023-03-02T19:50:33.083Z,98381.94
2023-03-02T19:53:00.360Z,98362.75
2023-03-02T19:55:27.622Z,98374.09
2023-03-02T19:58:01.138Z,98353.16
2023-03-02T20:00:33.473Z,98346.16
2023-03-02T20:03:00.854Z,98340.94
2023-03-02T20:05:28.343Z,98338.28
2023-03-02T20:07:55.816Z,98310.38
2023-03-02T20:10:31.482Z,98305.94
2023-03-02T20:12:59.877Z,98284.13
2023-03-02T20:15:33.167Z,98280.63
2023-03-02T20:18:02.591Z,98273.69
2023-03-02T20:20:30.848Z,98244.84
2023-03-02T20:22:58.862Z,98232.53
2023-03-02T20:25:27.115Z,98203.66
2023-03-02T20:27:54.638Z,98189.75
2023-03-02T20:30:29.363Z,98161.88
2023-03-02T20:32:57.804Z,98183.59
2023-03-02T20:35:27.739Z,98157.38
2023-03-02T20:37:57.473Z,98132.03
2023-03-02T20:40:26.056Z,98123.16
2023-03-02T20:42:53.607Z,98103.22
2023-03-02T20:45:21.261Z,98091.00
2023-03-02T20:47:49.167Z,98088.25
2023-03-02T20:50:23.616Z,98054.16
2023-03-02T20:52:50.949Z,98055.91
2023-03-02T20:55:18.604Z,98050.63
2023-03-02T20:57:45.909Z,98024.47
2023-03-02T21:00:21.688Z,98021.59
2023-03-02T21:02:49.757Z,98001.50
2023-03-02T21:05:19.759Z,97979.69
2023-03-02T21:07:47.819Z,97969.41
2023-03-02T21:10:20.732Z,97989.47
2023-03-02T21:12:49.202Z,97969.59
2023-03-02T21:15:17.493Z,97975.72
2023-03-02T21:17:44.708Z,97958.25
2023-03-02T21:20:13.477Z,97957.41
2023-03-02T21:22:40.846Z,97949.66
2023-03-02T21:25:09.426Z,97944.47
2023-03-02T21:27:39.443Z,97943.66
2023-03-02T21:30:09.419Z,97934.94
2023-03-02T21:32:36.438Z,97921.91
2023-03-02T21:35:03.783Z,97904.47
2023-03-02T21:37:32.676Z,97890.53
2023-03-02T21:40:00.204Z,97879.22
2023-03-02T21:42:27.390Z,97860.94
2023-03-02T21:44:54.645Z,97845.22
2023-03-02T21:47:21.818Z,97826.00
2023-03-02T21:49:49.563Z,97806.84
2023-03-02T21:52:16.693Z,97798.81
2023-03-02T21:54:43.909Z,97763.00
2023-03-02T21:57:11.700Z,97727.28
2023-03-02T21:59:38.694Z,97708.19
2023-03-02T22:02:05.917Z,97710.94
2023-03-02T22:04:35.310Z,97705.78
2023-03-02T22:07:02.616Z,97693.75
2023-03-02T22:09:29.830Z,97692.72
2023-03-02T22:11:58.086Z,97670.00
2023-03-02T22:14:25.532Z,97662.25
2023-03-02T22:16:52.557Z,97653.47
2023-03-02T22:19:31.455Z,97631.69
2023-03-02T22:22:00.949Z,97608.06
2023-03-02T22:24:31.570Z,97595.03
2023-03-02T22:27:31.195Z,97592.63
2023-03-02T22:30:02.149Z,97594.28
2023-03-02T22:32:37.509Z,97577.00
2023-03-02T22:35:22.133Z,97572.59
2023-03-02T22:37:51.937Z,97576.97
2023-03-02T22:40:25.147Z,97559.53
2023-03-02T22:43:06.084Z,97562.34
2023-03-02T22:45:33.137Z,97556.44
2023-03-02T22:48:00.456Z,97566.91
2023-03-02T22:50:30.570Z,97560.88
2023-03-02T22:53:00.215Z,97567.88
2023-03-02T22:55:43.687Z,97559.25
2023-03-02T22:58:43.196Z,97561.84
2023-03-02T23:01:21.268Z,97564.53
2023-03-02T23:03:52.998Z,97572.34
2023-03-02T23:06:26.476Z,97568.06
2023-03-02T23:08:57.730Z,97583.69
2023-03-02T23:11:26.101Z,97581.09
2023-03-02T23:13:54.172Z,97585.50
2023-03-02T23:16:28.457Z,97603.06
2023-03-02T23:18:59.437Z,97608.38
2023-03-02T23:21:44.759Z,97624.88
2023-03-02T23:24:12.535Z,97634.44
2023-03-02T23:26:39.934Z,97627.56
2023-03-02T23:29:07.633Z,97637.09
2023-03-02T23:31:34.742Z,97629.41
2023-03-02T23:34:02.083Z,97648.50
2023-03-02T23:36:30.898Z,97636.38
2023-03-02T23:38:58.573Z,97641.66
2023-03-02T23:41:26.110Z,97658.19
2023-03-02T23:43:53.231Z,97677.28
2023-03-02T23:46:20.433Z,97668.63
2023-03-02T23:48:48.581Z,97667.00
2023-03-02T23:51:16.357Z,97676.59
2023-03-02T23:53:43.578Z,97691.41
2023-03-02T23:56:11.568Z,97721.88
2023-03-02T23:58:39.132Z,97742.69
